松山國際航空站 - 塔臺(一站)

METAR RCSS 212100Z VRB02KT 9999 FEW012 BKN150 26/25 Q1000 NOSIG RMK A2955(D)=

站台狀態:Offline
最後更新:2018-07-22 05:00:03